METAR stanice u blizini

 

LYBE - Beograd / Surčin, Srbija
Ažurirano: 18/07/2024 01:00
Vedro
Vedro
 Pravac vetra JZ
Vetar: JZ 11 km/h
Temperatura: 28°C
Heat Index: 30°C
Tačka rose: 22°C
Vlažnost: 70%
Pritisak: 1015 hPa
Pregled: Vedro
Vidljivost: greater than 10 km
2024/07/17 23:00 LYBE 172300Z 22006KT CAVOK 28/22 Q1015 NOSIG
LYBT - Beograd / Batajnica, Srbija
Ažurirano: 18/07/2024 01:00
Vedro
Vedro
 Pravac vetra ZJZ
Vetar: ZJZ 6 km/h
Temperatura: 26°C
Tačka rose: 23°C
Vlažnost: 84%
Pritisak: 1015 hPa
Pregled: Vedro
Vidljivost: greater than 10 km
2024/07/17 23:00 LYBT 172300Z 24003KT CAVOK 26/23 Q1015 NOSIG
LYVR - Vršac, Srbija
Ažurirano: 18/07/2024 01:00
Vedro
Vedro
 Pravac vetra ZJZ
Vetar: ZJZ 9 km/h
Temperatura: 26°C
Tačka rose: 19°C
Vlažnost: 65%
Pritisak: 1014 hPa
Pregled: Vedro
Vidljivost: greater than 10 km
2024/07/17 23:00 LYVR 172300Z AUTO 24005KT CAVOK 26/19 Q1014
 
LYKV - Lađevci, Srbija
Ažurirano: 18/07/2024 01:00
Vedro
Vedro
 Pravac vetra calm
Vetar: Tišina
Temperatura: 25°C
Tačka rose: 22°C
Vlažnost: 83%
Pritisak: 1016 hPa
Pregled: Vedro
Vidljivost: greater than 10 km
2024/07/17 23:00 LYKV 172300Z 00000KT CAVOK 25/22 Q1016 NOSIG
LYNI - Niš, Srbija
Ažurirano: 18/07/2024 01:00
Vedro
Vedro
 Pravac vetra IJI
Vetar: IJI 7 km/h
Temperatura: 28°C
Heat Index: 28°C
Tačka rose: 17°C
Vlažnost: 51%
Pritisak: 1016 hPa
Pregled: Vedro
Vidljivost: greater than 10 km
2024/07/17 23:00 LYNI 172300Z 12004KT 100V170 CAVOK 28/17 Q1016 NOSIG
BKPR - Priština, Srbija
Ažurirano: 18/07/2024 01:00
Vedro
Vedro
 Pravac vetra SZ
Vetar: SZ 6 km/h
Temperatura: 26°C
Tačka rose: 15°C
Vlažnost: 51%
Pritisak: 1017 hPa
Pregled: Vedro
Vidljivost: greater than 10 km
2024/07/17 23:00 BKPR 172300Z 32003KT CAVOK 26/15 Q1017 NOSIG
 
LHPP - Pecs / Pogany, Hungary
Ažurirano: 18/07/2024 00:45
Vedro
Vedro
 Pravac vetra S
Vetar: S 20 km/h
Temperatura: 26°C
Tačka rose: 17°C
Vlažnost: 58%
Pritisak: 1018 hPa
Pregled: Vedro
Vidljivost: greater than 10 km
2024/07/17 22:45 LHPP 172245Z AUTO 35011KT CAVOK 26/17 Q1018
LHUD - Szeged, Hungary
Ažurirano: 04/07/2019 01:45
NOT Current
Vedro
Vedro
 Pravac vetra S
Vetar: S 7 km/h
Temperatura: 18°C
Tačka rose: 13°C
Vlažnost: 73%
Pritisak: 1019 hPa
Pregled: Vedro
Vidljivost: greater than 10 km
2019/07/03 23:45 LHUD 032345Z 35004KT CAVOK 18/13 Q1019
LRTR - Timisoara, Romania
Ažurirano: 18/07/2024 01:00
Few Clouds
Few Clouds
 Pravac vetra ISI
Vetar: ISI 13 km/h
Temperatura: 25°C
Tačka rose: 18°C
Vlažnost: 65%
Pritisak: 1015 hPa
Oblaci: Few Clouds
Vidljivost: 10 km
Cloud details: Few Clouds 1524 m
2024/07/17 23:00 LRTR 172300Z 07007KT 9999 FEW050CB 25/18 Q1015
 
LRCV - Craiova, Romania
Ažurirano: 18/07/2024 01:00
Vedro
Vedro
 Pravac vetra ISI
Vetar: ISI 9 km/h
Temperatura: 25°C
Tačka rose: 15°C
Vlažnost: 54%
Pritisak: 1015 hPa
Pregled: Vedro
Vidljivost: greater than 10 km
2024/07/17 23:00 LRCV 172300Z 07005KT CAVOK 25/15 Q1015
LBSF - Sofia, Bulgaria
Ažurirano: 18/07/2024 01:00
Vedro
Vedro
 Pravac vetra JI
Vetar: JI 9 km/h
Temperatura: 23°C
Tačka rose: 15°C
Vlažnost: 61%
Pritisak: 1017 hPa
Oblaci: Vedro
Vidljivost: 10 km
2024/07/17 23:00 LBSF 172300Z AUTO 13005KT 9999 NCD 23/15 Q1017 NOSIG
LWSK - Skoplje, Makedonija
Ažurirano: 18/07/2024 00:50
Vedro
Vedro
 Pravac vetra JJI
Vetar: JJI 6 km/h
Temperatura: 24°C
Tačka rose: 16°C
Vlažnost: 61%
Pritisak: 1015 hPa
Pregled: Vedro
Vidljivost: greater than 10 km
2024/07/17 22:50 LWSK 172250Z 16003KT 110V210 CAVOK 24/16 Q1015 NOSIG
 
LYPG - Podgorica, Crna Gora
Ažurirano: 18/07/2024 01:00
Vedro
Vedro
 Pravac vetra varies
Vetar: varies 2 km/h
Temperatura: 28°C
Heat Index: 30°C
Tačka rose: 22°C
Vlažnost: 70%
Pritisak: 1013 hPa
Pregled: Vedro
Vidljivost: greater than 10 km
2024/07/17 23:00 LYPG 172300Z AUTO VRB01KT CAVOK 28/22 Q1013
LQSA - Sarajevo, Bosna i Hercegovina
Ažurirano: 18/07/2024 01:00
Vedro
Vedro
 Pravac vetra varies
Vetar: varies 4 km/h
Temperatura: 21°C
Tačka rose: 19°C
Vlažnost: 88%
Pritisak: 1020 hPa
Pregled: Vedro
Vidljivost: greater than 10 km
2024/07/17 23:00 LQSA 172300Z VRB02KT CAVOK 21/19 Q1020
LDOS - Osijek, Hrvatksa
Ažurirano: 18/07/2024 01:00
Vedro
Vedro
 Pravac vetra SZ
Vetar: SZ 15 km/h
Temperatura: 26°C
Tačka rose: 18°C
Vlažnost: 61%
Pritisak: 1016 hPa
Pregled: Vedro
Vidljivost: greater than 10 km
2024/07/17 23:00 LDOS 172300Z 31008KT CAVOK 26/18 Q1016